Time;durP1;ratioP1;P1;durP2;ratioP2;P2;SDS_P1;SDS_P2;PMS_P1;PMS_P2;Temp;Humidity;BMP_temperature;BMP_pressure;BME280_temperature;BME280_humidity;BME280_pressure;Samples;Min_cycle;Max_cycle;Signal;HPM_P1;HPM_P2
2021/03/16 00:01:19;;;;;;;251.67;117.80;;;;;;;-1.54;74.63;99588.38;1838414;78;25499;-64
2021/03/16 00:03:46;;;;;;;247.90;117.20;;;;;;;-1.53;74.48;99591.84;1838613;78;25752;-65
2021/03/16 00:06:18;;;;;;;243.95;114.77;;;;;;;-1.55;74.83;99588.11;1838354;78;25499;-65
2021/03/16 00:08:44;;;;;;;237.20;110.80;;;;;;;-1.57;74.91;99593.37;1838764;78;25311;-66
2021/03/16 00:11:11;;;;;;;217.95;103.62;;;;;;;-1.56;74.93;99587.03;1838646;78;25522;-66
2021/03/16 00:13:40;;;;;;;194.80;92.37;;;;;;;-1.58;74.98;99591.25;1838352;78;25258;-65
2021/03/16 00:16:07;;;;;;;227.18;104.50;;;;;;;-1.59;74.97;99592.28;1838651;78;27960;-65
2021/03/16 00:18:34;;;;;;;218.50;102.22;;;;;;;-1.62;74.83;99586.14;1838572;78;25256;-65
2021/03/16 00:21:01;;;;;;;200.60;96.02;;;;;;;-1.65;74.82;99589.31;1838277;78;25228;-65
2021/03/16 00:23:29;;;;;;;194.95;91.63;;;;;;;-1.67;74.91;99590.58;1838588;78;25418;-65
2021/03/16 00:25:56;;;;;;;207.45;97.55;;;;;;;-1.69;74.89;99584.20;1838758;78;25544;-64
2021/03/16 00:28:23;;;;;;;213.05;100.27;;;;;;;-1.72;75.01;99585.50;1838522;78;25777;-63
2021/03/16 00:30:50;;;;;;;205.15;100.30;;;;;;;-1.73;75.07;99590.52;1838816;78;25487;-63
2021/03/16 00:33:19;;;;;;;236.55;107.37;;;;;;;-1.74;75.23;99587.60;1838752;78;25444;-63
2021/03/16 00:35:46;;;;;;;240.20;110.33;;;;;;;-1.73;75.38;99588.40;1838765;78;25497;-63
2021/03/16 00:38:12;;;;;;;232.00;108.27;;;;;;;-1.74;75.38;99584.95;1838808;78;25317;-65
2021/03/16 00:40:39;;;;;;;227.97;104.30;;;;;;;-1.74;75.28;99582.80;1838827;78;26652;-65
2021/03/16 00:43:05;;;;;;;230.43;106.72;;;;;;;-1.76;75.24;99583.58;1838381;78;25774;-64
2021/03/16 00:45:34;;;;;;;228.20;103.55;;;;;;;-1.79;75.34;99580.88;1838757;78;25225;-65
2021/03/16 00:48:01;;;;;;;224.27;108.32;;;;;;;-1.80;75.26;99577.97;1838823;78;25499;-65
2021/03/16 00:50:28;;;;;;;228.42;109.17;;;;;;;-1.83;75.32;99582.42;1838510;78;25265;-64
2021/03/16 00:52:54;;;;;;;235.80;110.63;;;;;;;-1.84;75.25;99583.45;1838701;78;25688;-64
2021/03/16 00:55:22;;;;;;;258.63;120.20;;;;;;;-1.86;75.39;99578.93;1838694;78;25413;-64
2021/03/16 00:57:48;;;;;;;258.23;113.10;;;;;;;-1.87;75.41;99580.00;1838525;78;25262;-64
2021/03/16 01:00:17;;;;;;;241.40;112.00;;;;;;;-1.86;75.48;99576.28;1829915;78;25484;-63
2021/03/16 01:02:44;;;;;;;256.43;117.85;;;;;;;-1.86;75.47;99576.81;1825485;78;25313;-64
2021/03/16 01:05:11;;;;;;;246.65;114.72;;;;;;;-1.86;75.44;99576.81;1826689;78;25688;-65
2021/03/16 01:07:38;;;;;;;256.43;116.65;;;;;;;-1.88;75.44;99574.40;1827933;77;25268;-64
2021/03/16 01:10:13;;;;;;;235.93;113.32;;;;;;;-1.89;75.44;99579.41;1825530;78;25428;-64
2021/03/16 01:12:45;;;;;;;263.15;117.33;;;;;;;-1.89;75.44;99576.77;1825264;78;25260;-64
2021/03/16 01:15:13;;;;;;;253.98;115.30;;;;;;;-1.91;75.44;99576.21;1825711;78;25249;-63
2021/03/16 01:17:40;;;;;;;246.72;117.70;;;;;;;-1.95;75.40;99579.08;1825931;78;26569;-63
2021/03/16 01:20:18;;;;;;;247.88;111.03;;;;;;;-1.97;75.37;99575.88;1825184;78;25809;-64
2021/03/16 01:22:45;;;;;;;236.57;109.90;;;;;;;-2.02;75.21;99581.90;1825580;78;25325;-63
2021/03/16 01:25:13;;;;;;;243.60;111.65;;;;;;;-2.08;75.23;99581.53;1825529;78;25454;-63
2021/03/16 01:27:40;;;;;;;241.90;111.80;;;;;;;-2.10;75.30;99579.66;1825517;78;25313;-63
2021/03/16 01:30:10;;;;;;;263.60;116.47;;;;;;;-2.14;75.30;99576.69;1825542;78;25764;-65
2021/03/16 01:32:38;;;;;;;244.22;112.88;;;;;;;-2.16;75.45;99577.96;1825594;78;25239;-63
2021/03/16 01:35:08;;;;;;;242.93;111.95;;;;;;;-2.16;75.36;99576.63;1825336;78;25481;-63
2021/03/16 01:37:37;;;;;;;242.40;108.83;;;;;;;-2.18;75.38;99574.25;1825535;78;25308;-66
2021/03/16 01:40:17;;;;;;;242.28;109.30;;;;;;;-2.19;75.55;99573.17;1825247;78;25603;-65
2021/03/16 01:42:44;;;;;;;241.55;107.67;;;;;;;-2.18;75.67;99573.44;1821936;78;25775;-65
2021/03/16 01:45:16;;;;;;;234.55;104.45;;;;;;;-2.17;75.79;99568.42;1825387;78;25478;-65
2021/03/16 01:47:49;;;;;;;238.18;105.80;;;;;;;-2.18;75.68;99568.95;1825578;78;25546;-65
2021/03/16 01:50:21;;;;;;;229.43;105.20;;;;;;;-2.21;75.62;99568.11;1825425;78;25486;-65
2021/03/16 01:52:51;;;;;;;236.77;108.40;;;;;;;-2.24;75.69;99568.59;1825703;78;25443;-65
2021/03/16 01:55:17;;;;;;;231.47;104.60;;;;;;;-2.27;75.86;99565.88;1825565;78;25769;-65
2021/03/16 01:57:45;;;;;;;235.68;108.47;;;;;;;-2.29;75.83;99565.33;1825478;78;25477;-65
2021/03/16 02:00:13;;;;;;;234.60;108.15;;;;;;;-2.31;76.01;99566.09;1828349;78;25486;-65
2021/03/16 02:02:39;;;;;;;233.13;108.60;;;;;;;-2.30;76.11;99571.69;1831158;78;25293;-65
2021/03/16 02:05:09;;;;;;;236.12;106.78;;;;;;;-2.30;76.21;99584.94;1831168;78;25485;-65
2021/03/16 02:08:02;;;;;;;222.55;102.32;;;;;;;-2.31;76.32;99583.84;1831251;78;26504;-65
2021/03/16 02:10:34;;;;;;;213.92;99.72;;;;;;;-2.30;76.63;99589.41;1831086;78;25415;-66
2021/03/16 02:13:08;;;;;;;210.08;95.72;;;;;;;-2.30;76.67;99593.38;1831144;78;25517;-66
2021/03/16 02:15:39;;;;;;;198.97;94.13;;;;;;;-2.30;76.65;99586.27;1830703;78;25277;-66
2021/03/16 02:18:15;;;;;;;190.22;90.47;;;;;;;-2.28;76.70;99594.77;1831125;78;25249;-66
2021/03/16 02:21:11;;;;;;;185.43;87.50;;;;;;;-2.25;76.80;99598.77;1831166;78;25728;-64
2021/03/16 02:23:59;;;;;;;166.50;77.97;;;;;;;-2.24;76.76;99604.36;1831023;78;25410;-63
2021/03/16 02:26:42;;;;;;;173.28;78.60;;;;;;;-2.26;76.99;99597.97;1831077;78;25449;-66
2021/03/16 02:29:23;;;;;;;184.63;83.05;;;;;;;-2.21;77.01;99601.73;1804576;78;25413;-64
2021/03/16 02:32:01;;;;;;;170.50;79.70;;;;;;;-2.21;76.96;99609.17;1831066;78;25461;-64
2021/03/16 02:34:29;;;;;;;168.72;75.52;;;;;;;-2.22;76.98;99596.96;1830362;78;27958;-64
2021/03/16 02:37:00;;;;;;;161.25;73.15;;;;;;;-2.21;76.89;99603.05;1831043;78;25510;-64
2021/03/16 02:39:27;;;;;;;157.67;74.35;;;;;;;-2.23;76.93;99608.62;1831124;78;25510;-64
2021/03/16 02:41:54;;;;;;;164.77;74.35;;;;;;;-2.23;76.94;99606.47;1831109;78;25454;-65
2021/03/16 02:44:21;;;;;;;158.27;71.92;;;;;;;-2.23;77.02;99607.80;1831180;78;25264;-65
2021/03/16 02:46:49;;;;;;;151.27;70.37;;;;;;;-2.22;77.07;99611.53;1831115;78;28021;-65
2021/03/16 02:49:17;;;;;;;156.82;72.22;;;;;;;-2.22;76.99;99610.73;1831231;78;25364;-65
2021/03/16 02:51:46;;;;;;;158.18;73.15;;;;;;;-2.22;76.95;99608.89;1831115;78;25485;-65
2021/03/16 02:54:15;;;;;;;158.50;72.65;;;;;;;-2.24;76.77;99610.19;1831140;78;25342;-65
2021/03/16 02:56:43;;;;;;;160.78;75.12;;;;;;;-2.28;76.81;99608.02;1831243;78;25302;-65
2021/03/16 02:59:12;;;;;;;175.42;81.28;;;;;;;-2.28;76.81;99617.28;1831051;78;25733;-64
2021/03/16 03:01:39;;;;;;;176.72;84.95;;;;;;;-2.30;76.78;99612.75;1808290;78;25494;-64
2021/03/16 03:04:07;;;;;;;184.45;82.37;;;;;;;-2.33;76.50;99610.58;1838748;78;25409;-64
2021/03/16 03:06:35;;;;;;;170.15;80.20;;;;;;;-2.37;76.61;99609.44;1840424;78;25303;-66
2021/03/16 03:09:04;;;;;;;178.10;82.35;;;;;;;-2.38;76.50;99604.37;1808888;78;25042;-64
2021/03/16 03:11:31;;;;;;;161.70;81.97;;;;;;;-2.40;76.57;99607.29;1839030;78;26593;-65
2021/03/16 03:14:04;;;;;;;168.13;82.25;;;;;;;-2.43;76.68;99605.12;1838784;78;25582;-65
2021/03/16 03:16:32;;;;;;;162.07;76.15;;;;;;;-2.45;76.60;99612.50;1838667;78;25464;-65
2021/03/16 03:19:01;;;;;;;158.80;73.00;;;;;;;-2.47;76.59;99611.41;1838618;78;25277;-65
2021/03/16 03:21:47;;;;;;;165.22;80.00;;;;;;;-2.48;76.65;99615.62;1838815;78;27527;-65
2021/03/16 03:24:23;;;;;;;146.37;71.00;;;;;;;-2.49;76.68;99618.77;1838656;78;25740;-65
2021/03/16 03:27:08;;;;;;;166.03;74.22;;;;;;;-2.51;76.61;99617.42;1838345;78;25291;-65
2021/03/16 03:29:37;;;;;;;159.37;74.42;;;;;;;-2.54;76.61;99615.24;1838567;78;25507;-65
2021/03/16 03:32:06;;;;;;;157.83;74.90;;;;;;;-2.55;76.70;99616.30;1838922;78;25234;-65
2021/03/16 03:34:35;;;;;;;156.15;68.85;;;;;;;-2.57;76.87;99611.24;1839030;78;25250;-65
2021/03/16 03:37:05;;;;;;;150.40;70.12;;;;;;;-2.58;76.87;99610.95;1838734;78;26219;-66
2021/03/16 03:39:35;;;;;;;144.57;68.95;;;;;;;-2.56;77.02;99610.19;1838559;78;25295;-65
2021/03/16 03:42:04;;;;;;;131.70;61.25;;;;;;;-2.54;77.18;99609.42;1808714;78;25533;-66
2021/03/16 03:44:34;;;;;;;120.90;59.42;;;;;;;-2.50;77.25;99610.56;1838615;78;25238;-66
2021/03/16 03:47:06;;;;;;;131.20;61.08;;;;;;;-2.50;77.16;99616.39;1838826;78;27507;-66
2021/03/16 03:49:35;;;;;;;125.78;59.60;;;;;;;-2.52;77.14;99615.80;1838668;78;25845;-66
2021/03/16 03:52:04;;;;;;;124.97;56.40;;;;;;;-2.51;77.11;99618.74;1808688;78;25469;-65
2021/03/16 03:54:33;;;;;;;110.60;54.13;;;;;;;-2.52;77.20;99613.98;1838802;78;25479;-66
2021/03/16 03:57:03;;;;;;;;;;;;;;;-2.45;77.25;99627.07;1841309;78;25295;-66
2021/03/16 03:59:31;;;;;;;123.82;53.48;;;;;;;-2.51;77.30;99623.52;1838779;78;25415;-66
2021/03/16 04:01:59;;;;;;;120.15;56.50;;;;;;;-2.51;77.28;99621.39;1826196;78;26596;-66
2021/03/16 04:04:29;;;;;;;122.07;55.05;;;;;;;-2.50;77.45;99621.16;1825587;78;25292;-66
2021/03/16 04:06:57;;;;;;;123.35;55.20;;;;;;;-2.48;77.44;99625.69;1825663;78;25411;-66
2021/03/16 04:09:25;;;;;;;114.97;52.85;;;;;;;-2.49;77.33;99624.60;1825776;78;25430;-66
2021/03/16 04:11:54;;;;;;;122.65;53.30;;;;;;;-2.50;77.35;99623.02;1825729;78;25312;-65
2021/03/16 04:14:22;;;;;;;156.30;68.65;;;;;;;-2.52;77.49;99621.09;1825655;78;25748;-65
2021/03/16 04:16:51;;;;;;;240.28;94.62;;;;;;;-2.51;77.70;99622.72;1825579;78;25237;-65
2021/03/16 04:19:20;;;;;;;230.10;96.87;;;;;;;-2.50;77.83;99621.69;1825795;78;25278;-65
2021/03/16 04:21:48;;;;;;;191.22;83.42;;;;;;;-2.51;77.77;99626.16;1825713;78;25493;-65
2021/03/16 04:24:18;;;;;;;123.87;59.85;;;;;;;-2.50;77.94;99629.10;1800365;78;25450;-66
2021/03/16 04:26:48;;;;;;;131.82;58.42;;;;;;;-2.51;77.90;99630.13;1825774;78;27052;-66
2021/03/16 04:29:16;;;;;;;137.88;59.85;;;;;;;-2.50;77.88;99636.25;1793196;78;25575;-66
2021/03/16 04:31:43;;;;;;;130.75;60.08;;;;;;;-2.51;78.01;99640.73;1825736;78;25475;-66
2021/03/16 04:34:11;;;;;;;127.32;61.95;;;;;;;-2.49;78.10;99647.91;1825607;78;25258;-66
2021/03/16 04:36:39;;;;;;;134.00;62.00;;;;;;;-2.48;78.20;99649.52;1825760;78;25519;-66
2021/03/16 04:39:06;;;;;;;131.75;58.08;;;;;;;-2.47;78.27;99646.34;1825651;78;25760;-66
2021/03/16 04:41:33;;;;;;;137.05;60.35;;;;;;;-2.45;78.27;99647.73;1825475;78;25582;-66
2021/03/16 04:44:00;;;;;;;127.75;59.33;;;;;;;-2.43;78.22;99648.81;1825636;78;25230;-66
2021/03/16 04:46:27;;;;;;;127.72;60.20;;;;;;;-2.44;78.13;99645.34;1825600;78;25517;-66
2021/03/16 04:48:54;;;;;;;130.30;59.38;;;;;;;-2.42;78.09;99645.64;1825682;78;25308;-66
2021/03/16 04:51:23;;;;;;;126.53;57.03;;;;;;;-2.43;77.92;99643.52;1825645;78;27061;-66
2021/03/16 04:53:50;;;;;;;128.75;57.93;;;;;;;-2.46;77.76;99640.81;1825516;78;25266;-66
2021/03/16 04:56:17;;;;;;;128.80;58.48;;;;;;;-2.48;77.73;99646.08;1825606;78;25371;-66
2021/03/16 04:58:45;;;;;;;130.07;60.55;;;;;;;-2.51;77.71;99643.37;1825631;78;25474;-65
2021/03/16 05:01:13;;;;;;;144.72;63.28;;;;;;;-2.51;77.63;99647.88;1828386;78;25246;-66
2021/03/16 05:03:40;;;;;;;130.15;57.05;;;;;;;-2.53;77.73;99650.76;1831100;78;25882;-65
2021/03/16 05:06:06;;;;;;;129.40;57.80;;;;;;;-2.56;77.55;99651.23;1831008;78;25711;-65
2021/03/16 05:08:33;;;;;;;123.90;57.10;;;;;;;-2.58;77.52;99655.97;1831096;78;25284;-65
2021/03/16 05:11:00;;;;;;;127.70;59.18;;;;;;;-2.57;77.83;99656.27;1831092;78;25474;-65
2021/03/16 05:13:26;;;;;;;121.65;58.65;;;;;;;-2.55;78.03;99646.23;1831139;78;25427;-65
2021/03/16 05:15:54;;;;;;;135.43;61.53;;;;;;;-2.50;78.12;99661.41;1831157;78;26127;-65
2021/03/16 05:18:21;;;;;;;169.60;80.03;;;;;;;-2.48;78.19;99663.30;1831104;78;25445;-65
2021/03/16 05:20:49;;;;;;;154.72;72.47;;;;;;;-2.44;78.27;99663.09;1831111;78;25475;-65
2021/03/16 05:23:17;;;;;;;168.78;75.30;;;;;;;-2.41;78.32;99665.80;1805520;78;25520;-65
2021/03/16 05:25:45;;;;;;;205.32;98.58;;;;;;;-2.38;78.26;99673.25;1831171;78;25327;-65
2021/03/16 05:28:12;;;;;;;172.60;79.77;;;;;;;-2.35;78.37;99680.22;1831156;78;26683;-65
2021/03/16 05:30:41;;;;;;;172.05;77.03;;;;;;;-2.29;78.57;99675.80;1831221;78;25489;-65
2021/03/16 05:33:09;;;;;;;174.23;80.57;;;;;;;-2.22;78.79;99680.95;1831531;78;25527;-65
2021/03/16 05:35:36;;;;;;;164.85;74.03;;;;;;;-2.15;78.91;99682.39;1831184;78;25310;-65
2021/03/16 05:38:04;;;;;;;154.40;66.15;;;;;;;-2.06;79.06;99689.42;1831151;78;25504;-65
2021/03/16 05:40:33;;;;;;;145.10;66.37;;;;;;;-1.98;79.15;99683.73;1831212;78;26603;-65
2021/03/16 05:43:02;;;;;;;140.68;64.50;;;;;;;-1.90;79.25;99683.33;1831187;78;25464;-65
2021/03/16 05:45:30;;;;;;;159.22;71.92;;;;;;;-1.79;79.41;99689.59;1831215;78;25453;-65
2021/03/16 05:47:58;;;;;;;165.05;74.20;;;;;;;-1.67;79.47;99694.01;1831171;78;25436;-65
2021/03/16 05:50:26;;;;;;;157.43;72.50;;;;;;;-1.58;79.44;99700.53;1831255;78;25501;-66
2021/03/16 05:52:55;;;;;;;159.18;69.67;;;;;;;-1.50;79.45;99701.41;1831206;78;26127;-66
2021/03/16 05:55:24;;;;;;;175.00;74.42;;;;;;;-1.38;79.58;99694.18;1805685;78;25532;-66
2021/03/16 05:57:51;;;;;;;165.62;71.12;;;;;;;-1.25;79.69;99700.97;1831111;78;25493;-66
2021/03/16 06:00:19;;;;;;;160.50;72.80;;;;;;;-1.10;79.66;99704.89;1830959;78;25414;-66
2021/03/16 06:02:46;;;;;;;162.95;72.37;;;;;;;-0.97;79.70;99705.83;1839287;78;25246;-66
2021/03/16 06:05:14;;;;;;;159.43;70.80;;;;;;;-0.83;79.74;99705.75;1839006;78;25672;-66
2021/03/16 06:07:49;;;;;;;152.22;69.55;;;;;;;-0.67;79.91;99708.05;1838931;78;25295;-66
2021/03/16 06:10:21;;;;;;;147.30;70.65;;;;;;;-0.48;80.09;99707.72;1839119;78;25255;-66
2021/03/16 06:12:49;;;;;;;150.35;67.20;;;;;;;-0.28;80.11;99708.46;1811229;78;25275;-66
2021/03/16 06:15:19;;;;;;;138.68;65.70;;;;;;;-0.07;80.10;99708.11;1839028;78;25093;-68
2021/03/16 06:17:52;;;;;;;142.35;61.13;;;;;;;0.17;80.33;99712.56;1839104;78;26650;-66
2021/03/16 06:20:35;;;;;;;129.07;58.83;;;;;;;0.43;80.26;99706.92;1838968;78;25481;-67
2021/03/16 06:23:11;;;;;;;126.20;57.88;;;;;;;0.69;80.01;99715.06;1838978;78;25258;-66
2021/03/16 06:25:42;;;;;;;113.40;53.55;;;;;;;0.91;79.59;99718.91;1839075;78;25301;-67
2021/03/16 06:28:13;;;;;;;121.30;56.30;;;;;;;1.12;79.16;99727.80;1839150;78;25327;-67
2021/03/16 06:30:41;;;;;;;113.47;52.70;;;;;;;1.38;79.21;99723.89;1845089;75;25745;-66
2021/03/16 06:33:23;;;;;;;116.90;55.17;;;;;;;1.69;79.38;99719.46;1873871;76;25427;-67
2021/03/16 06:36:00;;;;;;;109.63;54.65;;;;;;;2.01;79.32;99725.08;1862048;76;25300;-65
2021/03/16 06:38:29;;;;;;;111.35;52.27;;;;;;;2.38;79.05;99724.84;1862101;76;25348;-66
2021/03/16 06:41:14;;;;;;;111.00;52.50;;;;;;;2.72;78.72;99732.25;1862263;77;25305;-66
2021/03/16 06:43:44;;;;;;;110.48;49.93;;;;;;;3.05;77.94;99730.05;1862137;76;26572;-66
2021/03/16 06:46:11;;;;;;;109.83;50.88;;;;;;;3.41;77.82;99731.79;1861276;76;25256;-66
2021/03/16 06:48:39;;;;;;;100.82;50.60;;;;;;;3.78;77.54;99742.53;1862075;77;25336;-66
2021/03/16 06:51:14;;;;;;;102.15;52.35;;;;;;;4.05;76.46;99736.73;1861590;76;25270;-66
2021/03/16 06:53:43;;;;;;;115.67;55.63;;;;;;;4.34;76.27;99740.79;1887838;75;25008;-66
2021/03/16 06:56:09;;;;;;;100.53;52.13;;;;;;;4.68;75.94;99741.30;1846668;74;25663;-66
2021/03/16 06:58:37;;;;;;;107.32;54.25;;;;;;;5.02;75.55;99741.23;1842501;77;25313;-66
2021/03/16 07:01:14;;;;;;;103.02;53.30;;;;;;;5.30;74.84;99744.13;1818994;77;25244;-66
2021/03/16 07:03:41;;;;;;;100.85;50.50;;;;;;;5.68;74.86;99747.39;1842571;77;25347;-66
2021/03/16 07:06:16;;;;;;;101.85;52.35;;;;;;;6.07;74.40;99751.15;1842591;77;25391;-66
2021/03/16 07:08:45;;;;;;;99.87;51.25;;;;;;;6.40;73.84;99745.79;1842597;77;25745;-66
2021/03/16 07:11:18;;;;;;;97.30;50.52;;;;;;;6.72;73.05;99758.44;1842639;77;25250;-66
2021/03/16 07:13:45;;;;;;;99.50;51.53;;;;;;;6.93;72.19;99751.34;1842648;77;25354;-66
2021/03/16 07:16:13;;;;;;;96.97;51.85;;;;;;;7.13;71.55;99755.52;1842572;77;25259;-66
2021/03/16 07:18:43;;;;;;;97.35;51.68;;;;;;;7.24;70.76;99760.16;1842619;77;25266;-66
2021/03/16 07:21:25;;;;;;;95.42;49.85;;;;;;;7.34;70.54;99761.84;1842215;77;25691;-66
2021/03/16 07:24:11;;;;;;;84.35;45.50;;;;;;;7.46;70.24;99760.24;1854382;75;25444;-66
2021/03/16 07:26:39;;;;;;;75.85;42.58;;;;;;;7.63;69.94;99769.05;1857368;75;25326;-66
2021/03/16 07:29:07;;;;;;;78.78;42.58;;;;;;;7.88;69.66;99770.13;1842383;77;25305;-66
2021/03/16 07:31:35;;;;;;;75.95;42.08;;;;;;;8.17;69.52;99775.94;1848153;76;25291;-66
2021/03/16 07:34:05;;;;;;;72.60;42.48;;;;;;;8.41;68.53;99769.42;1856430;77;25890;-66
2021/03/16 07:36:34;;;;;;;71.72;41.63;;;;;;;8.46;67.74;99769.33;1873538;76;25588;-66
2021/03/16 07:39:03;;;;;;;79.60;43.73;;;;;;;8.57;67.63;99769.89;1875885;76;25341;-66
2021/03/16 07:41:31;;;;;;;73.78;40.78;;;;;;;8.88;67.40;99768.55;1876006;76;25306;-66
2021/03/16 07:44:05;;;;;;;69.70;40.83;;;;;;;9.23;67.16;99769.23;1852614;76;25457;-66
2021/03/16 07:46:59;;;;;;;72.27;40.90;;;;;;;9.62;67.00;99774.34;1876829;76;25736;-66
2021/03/16 07:49:40;;;;;;;70.80;41.85;;;;;;;10.06;66.41;99779.23;1876771;76;25456;-66
2021/03/16 07:54:58;;;;;;;66.77;38.15;;;;;;;11.11;63.57;99786.63;1849220;76;34609;-65
2021/03/16 07:57:31;;;;;;;63.60;38.53;;;;;;;11.67;63.05;99784.38;1847859;77;25464;-66
2021/03/16 08:00:01;;;;;;;58.23;36.58;;;;;;;12.42;62.18;99790.45;1839210;77;25700;-66
2021/03/16 08:02:33;;;;;;;56.80;36.95;;;;;;;12.86;60.79;99784.02;1852410;77;25725;-66
2021/03/16 08:05:00;;;;;;;56.53;33.83;;;;;;;13.13;59.78;99788.56;1852430;77;25586;-66
2021/03/16 08:07:31;;;;;;;59.05;36.65;;;;;;;13.51;59.15;99782.83;1766258;80;25276;-66
2021/03/16 08:09:58;;;;;;;57.65;37.08;;;;;;;13.56;57.93;99786.67;1755267;81;25585;-66
2021/03/16 08:12:30;;;;;;;57.78;37.33;;;;;;;13.59;57.03;99787.36;1752070;80;26156;-67
2021/03/16 08:15:11;;;;;;;64.25;38.98;;;;;;;13.72;56.25;99794.13;1740604;81;25577;-66
2021/03/16 08:17:38;;;;;;;61.10;38.63;;;;;;;14.05;56.08;99789.09;1725383;83;25692;-66
2021/03/16 08:20:06;;;;;;;63.05;38.67;;;;;;;14.64;55.89;99788.98;1725389;83;25537;-67
2021/03/16 08:22:33;;;;;;;57.98;38.30;;;;;;;15.08;55.80;99788.94;1725980;83;25530;-66
2021/03/16 08:25:05;;;;;;;60.20;36.93;;;;;;;15.31;54.42;99789.91;1725760;83;25775;-67
2021/03/16 08:27:34;;;;;;;56.40;36.95;;;;;;;15.39;53.65;99789.52;1759195;80;25593;-66
2021/03/16 08:30:08;;;;;;;59.48;34.38;;;;;;;15.61;53.49;99790.80;1743728;80;25753;-67
2021/03/16 08:32:36;;;;;;;53.78;35.45;;;;;;;15.62;52.90;99793.72;1734613;81;25185;-68
2021/03/16 08:35:05;;;;;;;51.58;35.95;;;;;;;15.62;51.89;99792.94;1787052;79;25881;-68
2021/03/16 08:37:36;;;;;;;53.28;34.80;;;;;;;15.73;51.67;99789.86;1804604;79;25753;-67
2021/03/16 08:40:07;;;;;;;46.45;32.65;;;;;;;15.82;50.98;99789.72;1804816;79;25571;-68
2021/03/16 08:42:33;;;;;;;51.02;33.73;;;;;;;15.89;50.44;99791.23;1804125;79;25571;-68
2021/03/16 08:45:00;;;;;;;54.25;33.18;;;;;;;15.88;50.18;99786.91;1804900;79;25500;-68
2021/03/16 08:47:28;;;;;;;47.43;31.45;;;;;;;15.84;49.99;99786.84;1805055;79;25474;-68
2021/03/16 08:49:56;;;;;;;49.00;30.88;;;;;;;15.90;49.69;99792.02;1804935;79;26643;-68
2021/03/16 08:52:29;;;;;;;44.73;30.70;;;;;;;16.00;49.40;99794.95;1783908;80;25622;-67
2021/03/16 08:54:58;;;;;;;48.38;28.55;;;;;;;16.30;49.58;99797.14;1796926;79;25480;-68
2021/03/16 08:57:30;;;;;;;41.77;29.35;;;;;;;16.64;48.62;99800.12;1796583;79;25542;-67
2021/03/16 08:59:59;;;;;;;44.38;30.43;;;;;;;16.78;48.12;99799.59;1796896;79;25465;-68
2021/03/16 09:02:31;;;;;;;45.80;29.95;;;;;;;16.72;47.35;99801.84;1796628;79;25775;-68
2021/03/16 09:04:59;;;;;;;45.88;30.12;;;;;;;16.54;46.98;99803.45;1740196;82;25296;-67
2021/03/16 09:07:30;;;;;;;51.40;33.20;;;;;;;16.28;46.67;99800.81;1770026;79;25639;-66
2021/03/16 09:10:13;;;;;;;48.98;31.27;;;;;;;16.32;47.04;99798.15;1735718;82;25610;-67
2021/03/16 09:12:42;;;;;;;46.10;30.15;;;;;;;16.75;46.81;99799.76;1735984;82;25519;-67
2021/03/16 09:15:27;;;;;;;43.85;29.48;;;;;;;16.97;46.49;99800.15;1736145;82;27019;-68
2021/03/16 09:17:58;;;;;;;42.73;27.35;;;;;;;17.04;45.78;99802.22;1736470;81;25279;-67
2021/03/16 09:20:38;;;;;;;46.00;29.27;;;;;;;17.08;45.41;99792.94;1696968;84;25645;-68
2021/03/16 09:23:08;;;;;;;45.65;29.07;;;;;;;17.24;45.18;99798.26;1727963;83;25264;-68
2021/03/16 09:25:43;;;;;;;41.85;28.38;;;;;;;17.47;45.40;99798.80;1697532;84;25577;-70
2021/03/16 09:28:13;;;;;;;40.95;28.38;;;;;;;17.70;44.68;99804.22;1727745;83;25714;-67
2021/03/16 09:30:55;;;;;;;39.10;27.95;;;;;;;17.90;43.38;99793.39;1697268;84;25622;-67
2021/03/16 09:33:24;;;;;;;44.00;30.23;;;;;;;18.01;44.14;99794.89;1727372;83;25605;-66
2021/03/16 09:36:00;;;;;;;43.23;29.67;;;;;;;18.24;43.66;99800.86;1697315;84;25526;-68
2021/03/16 09:38:28;;;;;;;40.25;26.95;;;;;;;18.18;43.42;99797.65;1728135;83;25432;-66
2021/03/16 09:40:55;;;;;;;38.48;26.35;;;;;;;18.21;42.90;99794.77;1697149;84;26659;-65
2021/03/16 09:43:36;;;;;;;34.10;23.62;;;;;;;17.84;42.55;99804.44;1727850;83;25556;-66
2021/03/16 09:46:13;;;;;;;34.00;22.42;;;;;;;17.34;42.31;99803.69;1697263;84;25537;-65
2021/03/16 09:48:46;;;;;;;29.60;21.25;;;;;;;16.76;42.16;99808.14;1727639;83;25717;-67
2021/03/16 09:51:19;;;;;;;35.60;22.27;;;;;;;16.19;42.22;99798.84;1697280;84;25577;-66
2021/03/16 09:53:48;;;;;;;33.85;23.62;;;;;;;15.61;42.79;99804.43;1727319;83;26672;-66
2021/03/16 09:56:15;;;;;;;35.03;24.32;;;;;;;15.28;43.48;99800.14;1730299;82;26253;-67
2021/03/16 09:58:49;;;;;;;31.20;22.90;;;;;;;15.67;44.08;99800.27;1758378;81;25428;-67
2021/03/16 10:01:22;;;;;;;30.52;21.07;;;;;;;15.72;43.66;99799.20;1760673;81;25572;-68
2021/03/16 10:04:02;;;;;;;27.15;19.17;;;;;;;15.52;43.66;99803.81;1760374;81;25526;-66
2021/03/16 10:06:34;;;;;;;32.25;19.62;;;;;;;15.27;43.50;99808.11;1759008;81;26829;-67
2021/03/16 10:09:19;;;;;;;32.20;21.30;;;;;;;14.91;43.59;99808.59;1760423;81;25478;-67
2021/03/16 10:11:46;;;;;;;29.95;20.65;;;;;;;14.52;43.89;99806.12;1760034;81;25573;-66
2021/03/16 10:14:12;;;;;;;30.02;17.85;;;;;;;14.19;44.46;99809.89;1759102;81;25550;-67
2021/03/16 10:16:39;;;;;;;20.37;13.58;;;;;;;13.99;44.64;99802.91;1734462;81;25320;-66
2021/03/16 10:19:06;;;;;;;17.00;11.60;;;;;;;14.52;44.29;99804.22;1760371;81;26155;-66
2021/03/16 10:21:36;;;;;;;20.62;13.10;;;;;;;15.31;44.16;99805.47;1759316;81;25584;-66
2021/03/16 10:24:05;;;;;;;19.37;13.60;;;;;;;16.55;43.92;99807.73;1769024;80;25133;-66
2021/03/16 10:26:32;;;;;;;20.10;14.13;;;;;;;16.96;42.18;99804.05;1772933;80;25332;-66
2021/03/16 10:29:10;;;;;;;17.85;13.60;;;;;;;16.72;41.85;99803.77;1760646;81;25523;-66
2021/03/16 10:31:39;;;;;;;18.07;12.95;;;;;;;16.44;41.66;99807.54;1760668;80;25969;-66
2021/03/16 10:34:05;;;;;;;17.20;12.20;;;;;;;16.00;41.02;99802.36;1760541;81;25653;-67
2021/03/16 10:36:35;;;;;;;15.70;10.93;;;;;;;15.69;40.96;99791.73;1760699;80;25550;-66
2021/03/16 10:39:05;;;;;;;21.90;11.85;;;;;;;15.57;41.02;99798.09;1760747;81;25562;-65
2021/03/16 10:41:31;;;;;;;23.80;11.50;;;;;;;16.10;42.07;99798.28;1760643;81;25512;-66
2021/03/16 10:43:58;;;;;;;17.77;11.53;;;;;;;17.10;41.95;99807.02;1760643;81;25698;-66
2021/03/16 10:46:25;;;;;;;16.12;9.55;;;;;;;17.99;40.31;99800.55;1760623;81;25300;-67
2021/03/16 10:48:51;;;;;;;13.68;10.38;;;;;;;18.46;39.40;99794.47;1760458;80;25310;-68
2021/03/16 10:51:18;;;;;;;11.30;8.88;;;;;;;18.83;38.83;99798.38;1760726;81;25469;-69
2021/03/16 10:53:44;;;;;;;20.55;11.00;;;;;;;18.81;37.80;99800.69;1759752;80;25473;-66
2021/03/16 10:56:11;;;;;;;15.80;11.25;;;;;;;18.46;38.21;99798.58;1747699;79;26943;-65
2021/03/16 10:58:38;;;;;;;14.38;10.35;;;;;;;18.06;38.22;99795.94;1749095;82;25416;-66
2021/03/16 11:01:04;;;;;;;15.00;11.43;;;;;;;17.74;38.58;99791.38;1752941;81;25282;-64
2021/03/16 11:03:33;;;;;;;18.92;11.30;;;;;;;17.47;38.45;99799.60;1752551;81;25768;-65
2021/03/16 11:06:00;;;;;;;21.60;11.10;;;;;;;17.09;38.49;99798.59;1752643;81;25614;-65
2021/03/16 11:08:26;;;;;;;18.32;13.08;;;;;;;16.88;39.27;99794.92;1764290;81;26810;-65
2021/03/16 11:10:53;;;;;;;20.85;13.78;;;;;;;16.71;39.46;99794.80;1764110;81;25354;-65
2021/03/16 11:13:19;;;;;;;18.10;13.38;;;;;;;16.38;39.49;99797.50;1764329;81;25562;-65
2021/03/16 11:15:48;;;;;;;19.10;13.15;;;;;;;15.96;39.79;99792.74;1764418;81;25655;-65
2021/03/16 11:18:14;;;;;;;18.20;13.30;;;;;;;15.55;39.97;99790.06;1764319;81;25530;-65
2021/03/16 11:20:40;;;;;;;20.97;13.35;;;;;;;15.10;40.00;99786.65;1764479;81;25702;-65
2021/03/16 11:23:06;;;;;;;18.70;12.68;;;;;;;14.61;40.10;99795.12;1764373;81;25476;-65
2021/03/16 11:25:35;;;;;;;14.28;11.25;;;;;;;14.19;40.57;99786.77;1764280;81;25266;-65
2021/03/16 11:28:07;;;;;;;16.57;10.93;;;;;;;13.84;40.79;99785.95;1796189;79;25595;-65